sensor_id;sensor_type;location;lat;lon;timestamp;P1;durP1;ratioP1;P2;durP2;ratioP2
58250;SDS011;51449;51.676;5.812;2023-03-17T00:00:03;4.83;;;2.87;;
58250;SDS011;51449;51.676;5.812;2023-03-17T00:02:31;3.60;;;2.67;;
58250;SDS011;51449;51.676;5.812;2023-03-17T00:04:53;3.40;;;3.00;;
58250;SDS011;51449;51.676;5.812;2023-03-17T00:07:15;3.30;;;2.60;;
58250;SDS011;51449;51.676;5.812;2023-03-17T00:09:37;4.67;;;2.70;;
58250;SDS011;51449;51.676;5.812;2023-03-17T00:11:59;5.53;;;3.13;;
58250;SDS011;51449;51.676;5.812;2023-03-17T00:14:21;4.17;;;2.60;;
58250;SDS011;51449;51.676;5.812;2023-03-17T00:16:44;2.50;;;2.27;;
58250;SDS011;51449;51.676;5.812;2023-03-17T00:19:13;3.47;;;2.60;;
58250;SDS011;51449;51.676;5.812;2023-03-17T00:21:38;2.90;;;2.50;;
58250;SDS011;51449;51.676;5.812;2023-03-17T00:24:00;3.63;;;2.53;;
58250;SDS011;51449;51.676;5.812;2023-03-17T00:26:22;5.27;;;2.40;;
58250;SDS011;51449;51.676;5.812;2023-03-17T00:28:45;2.90;;;2.60;;
58250;SDS011;51449;51.676;5.812;2023-03-17T00:31:14;3.73;;;2.77;;
58250;SDS011;51449;51.676;5.812;2023-03-17T00:33:41;2.77;;;2.30;;
58250;SDS011;51449;51.676;5.812;2023-03-17T00:36:08;4.37;;;2.63;;
58250;SDS011;51449;51.676;5.812;2023-03-17T00:38:35;4.57;;;2.70;;
58250;SDS011;51449;51.676;5.812;2023-03-17T00:40:57;2.60;;;2.10;;
58250;SDS011;51449;51.676;5.812;2023-03-17T00:43:19;3.27;;;2.50;;
58250;SDS011;51449;51.676;5.812;2023-03-17T00:45:41;3.33;;;2.57;;
58250;SDS011;51449;51.676;5.812;2023-03-17T00:48:12;3.80;;;2.53;;
58250;SDS011;51449;51.676;5.812;2023-03-17T00:50:37;4.50;;;2.47;;
58250;SDS011;51449;51.676;5.812;2023-03-17T00:52:59;4.53;;;2.53;;
58250;SDS011;51449;51.676;5.812;2023-03-17T00:55:21;3.17;;;2.67;;
58250;SDS011;51449;51.676;5.812;2023-03-17T00:57:48;4.57;;;2.70;;
58250;SDS011;51449;51.676;5.812;2023-03-17T01:00:32;3.37;;;2.40;;
58250;SDS011;51449;51.676;5.812;2023-03-17T01:02:53;2.60;;;2.10;;
58250;SDS011;51449;51.676;5.812;2023-03-17T01:05:20;3.20;;;2.67;;
58250;SDS011;51449;51.676;5.812;2023-03-17T01:07:45;3.80;;;2.50;;
58250;SDS011;51449;51.676;5.812;2023-03-17T01:10:15;3.83;;;2.30;;
58250;SDS011;51449;51.676;5.812;2023-03-17T01:12:40;3.87;;;2.47;;
58250;SDS011;51449;51.676;5.812;2023-03-17T01:15:03;3.63;;;2.20;;
58250;SDS011;51449;51.676;5.812;2023-03-17T01:17:26;3.40;;;2.30;;
58250;SDS011;51449;51.676;5.812;2023-03-17T01:19:48;4.07;;;2.20;;
58250;SDS011;51449;51.676;5.812;2023-03-17T01:22:09;4.37;;;2.40;;
58250;SDS011;51449;51.676;5.812;2023-03-17T01:24:32;2.90;;;2.40;;
58250;SDS011;51449;51.676;5.812;2023-03-17T01:26:53;4.30;;;2.50;;
58250;SDS011;51449;51.676;5.812;2023-03-17T01:29:15;3.97;;;2.70;;
58250;SDS011;51449;51.676;5.812;2023-03-17T01:31:37;3.03;;;2.63;;
58250;SDS011;51449;51.676;5.812;2023-03-17T01:33:59;3.57;;;2.90;;
58250;SDS011;51449;51.676;5.812;2023-03-17T01:36:21;3.07;;;2.50;;
58250;SDS011;51449;51.676;5.812;2023-03-17T01:38:43;3.57;;;2.40;;
58250;SDS011;51449;51.676;5.812;2023-03-17T01:41:08;4.03;;;2.40;;
58250;SDS011;51449;51.676;5.812;2023-03-17T01:43:30;3.33;;;2.63;;
58250;SDS011;51449;51.676;5.812;2023-03-17T01:48:57;3.97;;;2.63;;
58250;SDS011;51449;51.676;5.812;2023-03-17T01:54:27;3.88;;;2.55;;
58250;SDS011;51449;51.676;5.812;2023-03-17T01:57:18;3.10;;;2.30;;
58250;SDS011;51449;51.676;5.812;2023-03-17T01:59:47;4.73;;;2.40;;
58250;SDS011;51449;51.676;5.812;2023-03-17T02:02:17;3.67;;;2.60;;
58250;SDS011;51449;51.676;5.812;2023-03-17T02:04:45;2.83;;;2.33;;
58250;SDS011;51449;51.676;5.812;2023-03-17T02:07:09;8.17;;;3.50;;
58250;SDS011;51449;51.676;5.812;2023-03-17T02:09:34;2.93;;;2.40;;
58250;SDS011;51449;51.676;5.812;2023-03-17T02:11:57;4.07;;;2.43;;
58250;SDS011;51449;51.676;5.812;2023-03-17T02:14:22;3.40;;;2.30;;
58250;SDS011;51449;51.676;5.812;2023-03-17T02:16:44;2.60;;;2.07;;
58250;SDS011;51449;51.676;5.812;2023-03-17T02:19:09;3.83;;;2.30;;
58250;SDS011;51449;51.676;5.812;2023-03-17T02:24:01;4.00;;;2.23;;
58250;SDS011;51449;51.676;5.812;2023-03-17T02:26:30;3.60;;;2.43;;
58250;SDS011;51449;51.676;5.812;2023-03-17T02:28:56;3.03;;;2.10;;
58250;SDS011;51449;51.676;5.812;2023-03-17T02:31:17;3.23;;;2.40;;
58250;SDS011;51449;51.676;5.812;2023-03-17T02:33:40;3.90;;;2.60;;
58250;SDS011;51449;51.676;5.812;2023-03-17T02:36:02;3.67;;;2.40;;
58250;SDS011;51449;51.676;5.812;2023-03-17T02:38:25;3.63;;;2.30;;
58250;SDS011;51449;51.676;5.812;2023-03-17T02:40:47;4.53;;;2.20;;
58250;SDS011;51449;51.676;5.812;2023-03-17T02:43:09;3.23;;;2.60;;
58250;SDS011;51449;51.676;5.812;2023-03-17T02:45:31;3.10;;;2.10;;
58250;SDS011;51449;51.676;5.812;2023-03-17T02:47:53;3.00;;;2.37;;
58250;SDS011;51449;51.676;5.812;2023-03-17T02:50:17;3.10;;;2.20;;
58250;SDS011;51449;51.676;5.812;2023-03-17T02:52:43;4.40;;;2.27;;
58250;SDS011;51449;51.676;5.812;2023-03-17T02:55:05;3.50;;;2.23;;
58250;SDS011;51449;51.676;5.812;2023-03-17T02:57:28;2.57;;;2.20;;
58250;SDS011;51449;51.676;5.812;2023-03-17T02:59:50;2.10;;;1.90;;
58250;SDS011;51449;51.676;5.812;2023-03-17T03:02:12;4.13;;;2.07;;
58250;SDS011;51449;51.676;5.812;2023-03-17T03:04:34;3.07;;;2.77;;
58250;SDS011;51449;51.676;5.812;2023-03-17T03:06:56;2.87;;;2.23;;
58250;SDS011;51449;51.676;5.812;2023-03-17T03:09:18;4.30;;;2.57;;
58250;SDS011;51449;51.676;5.812;2023-03-17T03:11:41;3.30;;;2.40;;
58250;SDS011;51449;51.676;5.812;2023-03-17T03:14:03;2.80;;;2.43;;
58250;SDS011;51449;51.676;5.812;2023-03-17T03:16:25;3.90;;;2.90;;
58250;SDS011;51449;51.676;5.812;2023-03-17T03:18:47;4.37;;;2.67;;
58250;SDS011;51449;51.676;5.812;2023-03-17T03:21:09;3.87;;;2.50;;
58250;SDS011;51449;51.676;5.812;2023-03-17T03:23:31;4.23;;;2.43;;
58250;SDS011;51449;51.676;5.812;2023-03-17T03:25:52;3.30;;;2.80;;
58250;SDS011;51449;51.676;5.812;2023-03-17T03:28:14;4.77;;;2.50;;
58250;SDS011;51449;51.676;5.812;2023-03-17T03:30:36;4.40;;;2.40;;
58250;SDS011;51449;51.676;5.812;2023-03-17T03:32:58;4.27;;;2.60;;
58250;SDS011;51449;51.676;5.812;2023-03-17T03:35:20;3.43;;;2.63;;
58250;SDS011;51449;51.676;5.812;2023-03-17T03:37:42;3.70;;;2.90;;
58250;SDS011;51449;51.676;5.812;2023-03-17T03:40:04;5.13;;;2.73;;
58250;SDS011;51449;51.676;5.812;2023-03-17T03:42:27;3.63;;;2.60;;
58250;SDS011;51449;51.676;5.812;2023-03-17T03:44:49;4.43;;;2.90;;
58250;SDS011;51449;51.676;5.812;2023-03-17T03:47:12;4.33;;;2.40;;
58250;SDS011;51449;51.676;5.812;2023-03-17T03:49:34;4.03;;;3.20;;
58250;SDS011;51449;51.676;5.812;2023-03-17T03:51:56;4.17;;;2.70;;
58250;SDS011;51449;51.676;5.812;2023-03-17T03:54:17;4.60;;;2.97;;
58250;SDS011;51449;51.676;5.812;2023-03-17T03:56:39;4.20;;;3.03;;
58250;SDS011;51449;51.676;5.812;2023-03-17T03:59:01;6.97;;;3.17;;
58250;SDS011;51449;51.676;5.812;2023-03-17T04:01:23;4.33;;;3.27;;
58250;SDS011;51449;51.676;5.812;2023-03-17T04:03:45;5.27;;;3.00;;
58250;SDS011;51449;51.676;5.812;2023-03-17T04:06:07;3.90;;;2.90;;
58250;SDS011;51449;51.676;5.812;2023-03-17T04:08:29;6.50;;;3.47;;
58250;SDS011;51449;51.676;5.812;2023-03-17T04:10:52;4.30;;;3.33;;
58250;SDS011;51449;51.676;5.812;2023-03-17T04:13:13;5.37;;;3.00;;
58250;SDS011;51449;51.676;5.812;2023-03-17T04:15:35;5.57;;;3.03;;
58250;SDS011;51449;51.676;5.812;2023-03-17T04:17:57;5.47;;;4.00;;
58250;SDS011;51449;51.676;5.812;2023-03-17T04:20:19;5.07;;;3.23;;
58250;SDS011;51449;51.676;5.812;2023-03-17T04:22:41;5.20;;;3.30;;
58250;SDS011;51449;51.676;5.812;2023-03-17T04:25:04;5.30;;;3.80;;
58250;SDS011;51449;51.676;5.812;2023-03-17T04:27:26;5.30;;;3.30;;
58250;SDS011;51449;51.676;5.812;2023-03-17T04:29:48;5.20;;;3.60;;
58250;SDS011;51449;51.676;5.812;2023-03-17T04:32:11;4.80;;;3.30;;
58250;SDS011;51449;51.676;5.812;2023-03-17T04:34:36;5.10;;;3.70;;
58250;SDS011;51449;51.676;5.812;2023-03-17T04:36:57;4.87;;;3.33;;
58250;SDS011;51449;51.676;5.812;2023-03-17T04:39:19;7.53;;;3.97;;
58250;SDS011;51449;51.676;5.812;2023-03-17T04:41:41;7.73;;;3.57;;
58250;SDS011;51449;51.676;5.812;2023-03-17T04:44:03;4.73;;;3.40;;
58250;SDS011;51449;51.676;5.812;2023-03-17T04:46:26;6.63;;;3.97;;
58250;SDS011;51449;51.676;5.812;2023-03-17T04:48:47;5.67;;;3.60;;
58250;SDS011;51449;51.676;5.812;2023-03-17T04:51:09;5.00;;;3.70;;
58250;SDS011;51449;51.676;5.812;2023-03-17T04:53:32;5.37;;;3.80;;
58250;SDS011;51449;51.676;5.812;2023-03-17T04:55:55;6.77;;;3.60;;
58250;SDS011;51449;51.676;5.812;2023-03-17T04:58:16;6.27;;;3.80;;
58250;SDS011;51449;51.676;5.812;2023-03-17T05:03:13;5.33;;;3.50;;
58250;SDS011;51449;51.676;5.812;2023-03-17T05:05:47;6.95;;;3.92;;
58250;SDS011;51449;51.676;5.812;2023-03-17T05:08:11;6.77;;;3.80;;
58250;SDS011;51449;51.676;5.812;2023-03-17T05:10:32;9.40;;;4.40;;
58250;SDS011;51449;51.676;5.812;2023-03-17T05:12:54;6.67;;;3.83;;
58250;SDS011;51449;51.676;5.812;2023-03-17T05:15:16;6.63;;;4.27;;
58250;SDS011;51449;51.676;5.812;2023-03-17T05:17:38;6.43;;;4.40;;
58250;SDS011;51449;51.676;5.812;2023-03-17T05:20:00;4.83;;;3.70;;
58250;SDS011;51449;51.676;5.812;2023-03-17T05:22:25;5.87;;;4.00;;
58250;SDS011;51449;51.676;5.812;2023-03-17T05:24:47;5.97;;;3.97;;
58250;SDS011;51449;51.676;5.812;2023-03-17T05:27:09;5.10;;;4.00;;
58250;SDS011;51449;51.676;5.812;2023-03-17T05:29:30;6.33;;;3.87;;
58250;SDS011;51449;51.676;5.812;2023-03-17T05:31:53;5.37;;;3.70;;
58250;SDS011;51449;51.676;5.812;2023-03-17T05:34:14;5.63;;;4.23;;
58250;SDS011;51449;51.676;5.812;2023-03-17T05:36:37;7.77;;;4.07;;
58250;SDS011;51449;51.676;5.812;2023-03-17T05:38:59;7.03;;;4.70;;
58250;SDS011;51449;51.676;5.812;2023-03-17T05:41:21;5.23;;;3.83;;
58250;SDS011;51449;51.676;5.812;2023-03-17T05:43:43;7.60;;;4.33;;
58250;SDS011;51449;51.676;5.812;2023-03-17T05:46:05;5.60;;;4.37;;
58250;SDS011;51449;51.676;5.812;2023-03-17T05:48:26;6.47;;;4.00;;
58250;SDS011;51449;51.676;5.812;2023-03-17T05:50:48;6.70;;;3.80;;
58250;SDS011;51449;51.676;5.812;2023-03-17T05:53:11;8.30;;;4.10;;
58250;SDS011;51449;51.676;5.812;2023-03-17T05:55:32;6.07;;;4.73;;
58250;SDS011;51449;51.676;5.812;2023-03-17T05:57:54;6.90;;;4.70;;
58250;SDS011;51449;51.676;5.812;2023-03-17T06:00:16;7.90;;;4.27;;
58250;SDS011;51449;51.676;5.812;2023-03-17T06:02:39;8.30;;;4.63;;
58250;SDS011;51449;51.676;5.812;2023-03-17T06:05:00;7.37;;;4.93;;
58250;SDS011;51449;51.676;5.812;2023-03-17T06:07:23;5.30;;;4.07;;
58250;SDS011;51449;51.676;5.812;2023-03-17T06:09:45;6.27;;;4.23;;
58250;SDS011;51449;51.676;5.812;2023-03-17T06:12:07;7.53;;;4.67;;
58250;SDS011;51449;51.676;5.812;2023-03-17T06:14:29;5.50;;;4.43;;
58250;SDS011;51449;51.676;5.812;2023-03-17T06:16:51;5.23;;;4.00;;
58250;SDS011;51449;51.676;5.812;2023-03-17T06:19:13;5.53;;;3.77;;
58250;SDS011;51449;51.676;5.812;2023-03-17T06:21:35;7.07;;;4.30;;
58250;SDS011;51449;51.676;5.812;2023-03-17T06:23:57;6.07;;;4.23;;
58250;SDS011;51449;51.676;5.812;2023-03-17T06:26:19;5.67;;;4.40;;
58250;SDS011;51449;51.676;5.812;2023-03-17T06:28:41;8.53;;;4.50;;
58250;SDS011;51449;51.676;5.812;2023-03-17T06:31:03;8.13;;;4.03;;
58250;SDS011;51449;51.676;5.812;2023-03-17T06:33:28;7.87;;;4.00;;
58250;SDS011;51449;51.676;5.812;2023-03-17T06:35:50;7.00;;;4.33;;
58250;SDS011;51449;51.676;5.812;2023-03-17T06:38:12;7.90;;;4.50;;
58250;SDS011;51449;51.676;5.812;2023-03-17T06:40:33;6.23;;;4.03;;
58250;SDS011;51449;51.676;5.812;2023-03-17T06:42:55;7.73;;;4.47;;
58250;SDS011;51449;51.676;5.812;2023-03-17T06:45:17;8.27;;;4.53;;
58250;SDS011;51449;51.676;5.812;2023-03-17T06:47:39;6.83;;;4.73;;
58250;SDS011;51449;51.676;5.812;2023-03-17T06:50:01;5.93;;;4.00;;
58250;SDS011;51449;51.676;5.812;2023-03-17T06:52:25;6.95;;;4.32;;
58250;SDS011;51449;51.676;5.812;2023-03-17T06:54:47;6.93;;;4.23;;
58250;SDS011;51449;51.676;5.812;2023-03-17T06:57:09;6.03;;;4.57;;
58250;SDS011;51449;51.676;5.812;2023-03-17T06:59:31;6.60;;;4.20;;
58250;SDS011;51449;51.676;5.812;2023-03-17T07:01:55;5.20;;;4.32;;
58250;SDS011;51449;51.676;5.812;2023-03-17T07:04:18;7.93;;;4.40;;
58250;SDS011;51449;51.676;5.812;2023-03-17T07:06:40;7.57;;;3.87;;
58250;SDS011;51449;51.676;5.812;2023-03-17T07:09:02;6.93;;;3.90;;
58250;SDS011;51449;51.676;5.812;2023-03-17T07:11:24;6.90;;;4.27;;
58250;SDS011;51449;51.676;5.812;2023-03-17T07:13:46;6.20;;;4.53;;
58250;SDS011;51449;51.676;5.812;2023-03-17T07:16:08;8.20;;;5.20;;
58250;SDS011;51449;51.676;5.812;2023-03-17T07:18:34;8.27;;;4.63;;
58250;SDS011;51449;51.676;5.812;2023-03-17T07:20:55;6.37;;;4.27;;
58250;SDS011;51449;51.676;5.812;2023-03-17T07:23:22;6.27;;;4.27;;
58250;SDS011;51449;51.676;5.812;2023-03-17T07:25:43;7.50;;;4.40;;
58250;SDS011;51449;51.676;5.812;2023-03-17T07:28:07;6.03;;;4.03;;
58250;SDS011;51449;51.676;5.812;2023-03-17T07:30:29;6.77;;;4.30;;
58250;SDS011;51449;51.676;5.812;2023-03-17T07:32:52;9.17;;;3.93;;
58250;SDS011;51449;51.676;5.812;2023-03-17T07:35:14;5.63;;;4.37;;
58250;SDS011;51449;51.676;5.812;2023-03-17T07:37:36;6.70;;;4.17;;
58250;SDS011;51449;51.676;5.812;2023-03-17T07:39:58;5.23;;;3.80;;
58250;SDS011;51449;51.676;5.812;2023-03-17T07:42:20;5.03;;;3.80;;
58250;SDS011;51449;51.676;5.812;2023-03-17T07:44:42;5.17;;;3.53;;
58250;SDS011;51449;51.676;5.812;2023-03-17T07:47:04;6.17;;;3.70;;
58250;SDS011;51449;51.676;5.812;2023-03-17T07:49:26;7.00;;;4.00;;
58250;SDS011;51449;51.676;5.812;2023-03-17T07:52:02;5.70;;;3.53;;
58250;SDS011;51449;51.676;5.812;2023-03-17T07:54:24;6.73;;;4.17;;
58250;SDS011;51449;51.676;5.812;2023-03-17T07:59:10;7.07;;;3.77;;
58250;SDS011;51449;51.676;5.812;2023-03-17T08:01:33;5.93;;;3.53;;
58250;SDS011;51449;51.676;5.812;2023-03-17T08:03:55;8.90;;;3.73;;
58250;SDS011;51449;51.676;5.812;2023-03-17T08:06:17;6.07;;;3.73;;
58250;SDS011;51449;51.676;5.812;2023-03-17T08:08:39;7.10;;;3.77;;
58250;SDS011;51449;51.676;5.812;2023-03-17T08:11:02;7.87;;;4.63;;
58250;SDS011;51449;51.676;5.812;2023-03-17T08:13:25;6.15;;;4.03;;
58250;SDS011;51449;51.676;5.812;2023-03-17T08:15:48;6.13;;;3.90;;
58250;SDS011;51449;51.676;5.812;2023-03-17T08:18:10;7.00;;;4.00;;
58250;SDS011;51449;51.676;5.812;2023-03-17T08:20:33;7.00;;;3.83;;
58250;SDS011;51449;51.676;5.812;2023-03-17T08:22:55;5.57;;;3.83;;
58250;SDS011;51449;51.676;5.812;2023-03-17T08:25:17;6.57;;;3.50;;
58250;SDS011;51449;51.676;5.812;2023-03-17T08:27:39;6.27;;;3.60;;
58250;SDS011;51449;51.676;5.812;2023-03-17T08:30:02;4.43;;;3.73;;
58250;SDS011;51449;51.676;5.812;2023-03-17T08:32:24;5.53;;;4.20;;
58250;SDS011;51449;51.676;5.812;2023-03-17T08:34:46;6.47;;;3.57;;
58250;SDS011;51449;51.676;5.812;2023-03-17T08:37:08;7.17;;;3.63;;
58250;SDS011;51449;51.676;5.812;2023-03-17T08:39:31;5.43;;;3.23;;
58250;SDS011;51449;51.676;5.812;2023-03-17T08:41:54;5.97;;;3.47;;
58250;SDS011;51449;51.676;5.812;2023-03-17T08:44:16;4.17;;;3.40;;
58250;SDS011;51449;51.676;5.812;2023-03-17T08:46:37;4.47;;;3.33;;
58250;SDS011;51449;51.676;5.812;2023-03-17T08:49:00;6.13;;;3.53;;
58250;SDS011;51449;51.676;5.812;2023-03-17T08:51:24;6.00;;;3.70;;
58250;SDS011;51449;51.676;5.812;2023-03-17T08:53:50;5.07;;;3.50;;
58250;SDS011;51449;51.676;5.812;2023-03-17T08:56:14;4.18;;;3.47;;
58250;SDS011;51449;51.676;5.812;2023-03-17T08:58:37;5.67;;;3.63;;
58250;SDS011;51449;51.676;5.812;2023-03-17T09:01:03;5.23;;;3.57;;
58250;SDS011;51449;51.676;5.812;2023-03-17T09:03:27;3.92;;;3.20;;
58250;SDS011;51449;51.676;5.812;2023-03-17T09:05:49;6.17;;;3.47;;
58250;SDS011;51449;51.676;5.812;2023-03-17T09:08:11;6.63;;;4.20;;
58250;SDS011;51449;51.676;5.812;2023-03-17T09:10:35;4.87;;;3.30;;
58250;SDS011;51449;51.676;5.812;2023-03-17T09:12:57;7.73;;;3.60;;
58250;SDS011;51449;51.676;5.812;2023-03-17T09:15:24;5.90;;;3.53;;
58250;SDS011;51449;51.676;5.812;2023-03-17T09:17:46;4.10;;;3.60;;
58250;SDS011;51449;51.676;5.812;2023-03-17T09:20:07;7.60;;;3.70;;
58250;SDS011;51449;51.676;5.812;2023-03-17T09:22:32;7.55;;;3.35;;
58250;SDS011;51449;51.676;5.812;2023-03-17T09:24:53;5.40;;;3.10;;
58250;SDS011;51449;51.676;5.812;2023-03-17T09:27:15;5.30;;;3.50;;
58250;SDS011;51449;51.676;5.812;2023-03-17T09:29:37;5.43;;;3.17;;
58250;SDS011;51449;51.676;5.812;2023-03-17T09:31:59;4.63;;;3.57;;
58250;SDS011;51449;51.676;5.812;2023-03-17T09:34:21;5.47;;;3.43;;
58250;SDS011;51449;51.676;5.812;2023-03-17T09:36:46;5.63;;;3.25;;
58250;SDS011;51449;51.676;5.812;2023-03-17T09:39:08;4.77;;;3.07;;
58250;SDS011;51449;51.676;5.812;2023-03-17T09:46:56;4.53;;;3.13;;
58250;SDS011;51449;51.676;5.812;2023-03-17T09:49:44;5.77;;;3.77;;
58250;SDS011;51449;51.676;5.812;2023-03-17T09:52:13;5.00;;;3.20;;
58250;SDS011;51449;51.676;5.812;2023-03-17T09:54:44;4.83;;;3.67;;
58250;SDS011;51449;51.676;5.812;2023-03-17T09:57:21;5.37;;;3.17;;
58250;SDS011;51449;51.676;5.812;2023-03-17T09:59:53;5.03;;;3.40;;
58250;SDS011;51449;51.676;5.812;2023-03-17T10:02:39;4.87;;;3.50;;
58250;SDS011;51449;51.676;5.812;2023-03-17T10:05:15;4.47;;;3.40;;
58250;SDS011;51449;51.676;5.812;2023-03-17T10:08:00;6.40;;;3.50;;
58250;SDS011;51449;51.676;5.812;2023-03-17T10:10:27;6.10;;;3.10;;
58250;SDS011;51449;51.676;5.812;2023-03-17T10:13:13;7.93;;;3.33;;
58250;SDS011;51449;51.676;5.812;2023-03-17T10:15:49;4.13;;;3.57;;
58250;SDS011;51449;51.676;5.812;2023-03-17T10:18:22;5.20;;;3.33;;
58250;SDS011;51449;51.676;5.812;2023-03-17T10:20:51;4.23;;;3.40;;
58250;SDS011;51449;51.676;5.812;2023-03-17T10:23:20;4.97;;;3.27;;
58250;SDS011;51449;51.676;5.812;2023-03-17T10:25:50;3.93;;;3.47;;
58250;SDS011;51449;51.676;5.812;2023-03-17T10:30:46;5.77;;;3.30;;
58250;SDS011;51449;51.676;5.812;2023-03-17T10:33:08;4.83;;;3.50;;
58250;SDS011;51449;51.676;5.812;2023-03-17T10:35:30;4.43;;;3.70;;
58250;SDS011;51449;51.676;5.812;2023-03-17T10:37:56;5.67;;;3.57;;
58250;SDS011;51449;51.676;5.812;2023-03-17T10:40:34;6.53;;;3.60;;
58250;SDS011;51449;51.676;5.812;2023-03-17T10:43:01;5.33;;;3.87;;
58250;SDS011;51449;51.676;5.812;2023-03-17T10:45:29;4.93;;;3.30;;
58250;SDS011;51449;51.676;5.812;2023-03-17T10:47:54;5.17;;;3.53;;
58250;SDS011;51449;51.676;5.812;2023-03-17T10:53:08;4.37;;;3.57;;
58250;SDS011;51449;51.676;5.812;2023-03-17T10:55:49;6.23;;;3.80;;
58250;SDS011;51449;51.676;5.812;2023-03-17T10:58:14;4.30;;;3.40;;
58250;SDS011;51449;51.676;5.812;2023-03-17T11:00:38;7.20;;;3.50;;
58250;SDS011;51449;51.676;5.812;2023-03-17T11:03:21;6.70;;;4.07;;
58250;SDS011;51449;51.676;5.812;2023-03-17T11:06:01;5.37;;;3.43;;
58250;SDS011;51449;51.676;5.812;2023-03-17T11:08:31;5.20;;;3.87;;
58250;SDS011;51449;51.676;5.812;2023-03-17T11:11:03;5.80;;;4.10;;
58250;SDS011;51449;51.676;5.812;2023-03-17T11:13:30;6.00;;;3.80;;
58250;SDS011;51449;51.676;5.812;2023-03-17T11:15:57;8.23;;;4.20;;
58250;SDS011;51449;51.676;5.812;2023-03-17T11:18:55;6.50;;;4.03;;
58250;SDS011;51449;51.676;5.812;2023-03-17T11:21:34;6.50;;;3.90;;
58250;SDS011;51449;51.676;5.812;2023-03-17T11:24:20;5.90;;;4.10;;
58250;SDS011;51449;51.676;5.812;2023-03-17T11:29:40;5.73;;;4.07;;
58250;SDS011;51449;51.676;5.812;2023-03-17T11:32:29;7.90;;;4.00;;
58250;SDS011;51449;51.676;5.812;2023-03-17T11:45:37;5.93;;;4.13;;
58250;SDS011;51449;51.676;5.812;2023-03-17T11:51:09;6.32;;;4.40;;
58250;SDS011;51449;51.676;5.812;2023-03-17T11:53:55;7.07;;;4.68;;
58250;SDS011;51449;51.676;5.812;2023-03-17T11:56:44;6.40;;;4.43;;
58250;SDS011;51449;51.676;5.812;2023-03-17T11:59:25;7.57;;;4.32;;
58250;SDS011;51449;51.676;5.812;2023-03-17T12:05:00;7.00;;;4.75;;
58250;SDS011;51449;51.676;5.812;2023-03-17T12:12:47;5.40;;;4.28;;
58250;SDS011;51449;51.676;5.812;2023-03-17T12:15:29;5.65;;;4.07;;
58250;SDS011;51449;51.676;5.812;2023-03-17T12:18:05;5.13;;;3.92;;
58250;SDS011;51449;51.676;5.812;2023-03-17T12:31:36;7.07;;;4.30;;
58250;SDS011;51449;51.676;5.812;2023-03-17T12:36:40;7.32;;;4.65;;
58250;SDS011;51449;51.676;5.812;2023-03-17T12:39:05;5.20;;;4.68;;
58250;SDS011;51449;51.676;5.812;2023-03-17T12:55:34;6.53;;;4.88;;
58250;SDS011;51449;51.676;5.812;2023-03-17T12:58:01;7.15;;;4.65;;
58250;SDS011;51449;51.676;5.812;2023-03-17T13:00:47;5.55;;;4.35;;
58250;SDS011;51449;51.676;5.812;2023-03-17T13:05:52;7.15;;;4.70;;
58250;SDS011;51449;51.676;5.812;2023-03-17T13:08:24;6.95;;;4.65;;
58250;SDS011;51449;51.676;5.812;2023-03-17T13:11:16;6.57;;;4.47;;
58250;SDS011;51449;51.676;5.812;2023-03-17T13:13:54;6.72;;;4.35;;
58250;SDS011;51449;51.676;5.812;2023-03-17T13:16:33;7.88;;;4.47;;
58250;SDS011;51449;51.676;5.812;2023-03-17T13:21:35;6.93;;;4.07;;
58250;SDS011;51449;51.676;5.812;2023-03-17T13:24:17;8.40;;;5.00;;
58250;SDS011;51449;51.676;5.812;2023-03-17T13:29:21;7.65;;;4.75;;
58250;SDS011;51449;51.676;5.812;2023-03-17T13:31:52;7.57;;;5.57;;
58250;SDS011;51449;51.676;5.812;2023-03-17T13:34:43;9.52;;;5.47;;
58250;SDS011;51449;51.676;5.812;2023-03-17T13:37:28;9.80;;;5.07;;
58250;SDS011;51449;51.676;5.812;2023-03-17T13:40:16;8.65;;;5.00;;
58250;SDS011;51449;51.676;5.812;2023-03-17T13:45:20;5.70;;;5.10;;
58250;SDS011;51449;51.676;5.812;2023-03-17T13:48:20;5.55;;;4.63;;
58250;SDS011;51449;51.676;5.812;2023-03-17T13:50:58;7.93;;;4.90;;
58250;SDS011;51449;51.676;5.812;2023-03-17T13:53:36;8.65;;;5.43;;
58250;SDS011;51449;51.676;5.812;2023-03-17T13:56:06;8.93;;;5.32;;
58250;SDS011;51449;51.676;5.812;2023-03-17T14:01:23;7.72;;;5.28;;
58250;SDS011;51449;51.676;5.812;2023-03-17T14:03:47;8.87;;;6.47;;
58250;SDS011;51449;51.676;5.812;2023-03-17T14:06:11;9.43;;;6.13;;
58250;SDS011;51449;51.676;5.812;2023-03-17T14:08:36;8.40;;;5.57;;
58250;SDS011;51449;51.676;5.812;2023-03-17T14:11:16;6.13;;;4.55;;
58250;SDS011;51449;51.676;5.812;2023-03-17T14:16:58;5.43;;;3.67;;
58250;SDS011;51449;51.676;5.812;2023-03-17T14:19:30;8.13;;;4.63;;
58250;SDS011;51449;51.676;5.812;2023-03-17T14:22:16;6.63;;;4.82;;
58250;SDS011;51449;51.676;5.812;2023-03-17T14:24:41;7.63;;;4.80;;
58250;SDS011;51449;51.676;5.812;2023-03-17T14:27:06;7.80;;;5.03;;
58250;SDS011;51449;51.676;5.812;2023-03-17T14:29:32;5.28;;;4.57;;
58250;SDS011;51449;51.676;5.812;2023-03-17T14:32:01;8.50;;;4.60;;
58250;SDS011;51449;51.676;5.812;2023-03-17T14:34:26;8.05;;;4.50;;
58250;SDS011;51449;51.676;5.812;2023-03-17T14:36:49;6.70;;;4.18;;
58250;SDS011;51449;51.676;5.812;2023-03-17T14:39:19;6.65;;;4.63;;
58250;SDS011;51449;51.676;5.812;2023-03-17T14:41:44;7.00;;;4.30;;
58250;SDS011;51449;51.676;5.812;2023-03-17T14:44:07;11.68;;;4.57;;
58250;SDS011;51449;51.676;5.812;2023-03-17T14:46:31;7.80;;;4.80;;
58250;SDS011;51449;51.676;5.812;2023-03-17T14:49:04;6.05;;;4.40;;
58250;SDS011;51449;51.676;5.812;2023-03-17T14:51:38;7.10;;;4.53;;
58250;SDS011;51449;51.676;5.812;2023-03-17T14:54:22;7.85;;;4.40;;
58250;SDS011;51449;51.676;5.812;2023-03-17T14:56:52;9.30;;;4.50;;
58250;SDS011;51449;51.676;5.812;2023-03-17T14:59:23;5.70;;;4.50;;
58250;SDS011;51449;51.676;5.812;2023-03-17T15:01:54;7.03;;;4.80;;
58250;SDS011;51449;51.676;5.812;2023-03-17T15:04:20;6.20;;;4.72;;
58250;SDS011;51449;51.676;5.812;2023-03-17T15:09:16;6.90;;;4.43;;
58250;SDS011;51449;51.676;5.812;2023-03-17T15:11:40;12.10;;;5.30;;
58250;SDS011;51449;51.676;5.812;2023-03-17T15:14:13;7.15;;;4.78;;
58250;SDS011;51449;51.676;5.812;2023-03-17T15:16:51;6.90;;;3.92;;
58250;SDS011;51449;51.676;5.812;2023-03-17T15:22:03;8.75;;;5.00;;
58250;SDS011;51449;51.676;5.812;2023-03-17T15:24:58;8.05;;;4.65;;
58250;SDS011;51449;51.676;5.812;2023-03-17T15:27:40;7.57;;;4.78;;
58250;SDS011;51449;51.676;5.812;2023-03-17T15:30:03;8.02;;;5.20;;
58250;SDS011;51449;51.676;5.812;2023-03-17T15:32:25;6.70;;;4.80;;
58250;SDS011;51449;51.676;5.812;2023-03-17T15:34:50;7.95;;;4.75;;
58250;SDS011;51449;51.676;5.812;2023-03-17T15:37:22;7.43;;;4.45;;
58250;SDS011;51449;51.676;5.812;2023-03-17T15:39:52;8.45;;;4.53;;
58250;SDS011;51449;51.676;5.812;2023-03-17T15:42:16;8.32;;;4.53;;
58250;SDS011;51449;51.676;5.812;2023-03-17T15:44:42;7.53;;;4.28;;
58250;SDS011;51449;51.676;5.812;2023-03-17T15:47:04;5.82;;;4.72;;
58250;SDS011;51449;51.676;5.812;2023-03-17T15:49:26;6.30;;;4.70;;
58250;SDS011;51449;51.676;5.812;2023-03-17T15:51:47;6.50;;;4.47;;
58250;SDS011;51449;51.676;5.812;2023-03-17T15:54:11;7.43;;;4.22;;
58250;SDS011;51449;51.676;5.812;2023-03-17T15:56:35;7.60;;;4.18;;
58250;SDS011;51449;51.676;5.812;2023-03-17T15:58:58;6.65;;;4.72;;
58250;SDS011;51449;51.676;5.812;2023-03-17T16:01:20;9.73;;;5.20;;
58250;SDS011;51449;51.676;5.812;2023-03-17T16:03:42;8.13;;;5.55;;
58250;SDS011;51449;51.676;5.812;2023-03-17T16:06:12;6.75;;;4.90;;
58250;SDS011;51449;51.676;5.812;2023-03-17T16:08:40;7.03;;;4.70;;
58250;SDS011;51449;51.676;5.812;2023-03-17T16:11:02;8.90;;;5.18;;
58250;SDS011;51449;51.676;5.812;2023-03-17T16:13:23;10.02;;;5.05;;
58250;SDS011;51449;51.676;5.812;2023-03-17T16:15:46;5.47;;;4.63;;
58250;SDS011;51449;51.676;5.812;2023-03-17T16:18:17;8.38;;;4.88;;